• Join FlightAware (Why Join?)
  • Login
  • US Flag 
10:25AM EDT


 

Airport Tracker/Info


-or-


 

Live Flight TrackerFlight Track Log ✈ N96CB ✈ 25-Jul-2014 ✈ KMCN - KMSL

Flight Track Log - Related Links

Times and Time Zones

All times are in EDT time to prevent confusion due to time zone crossing. See the N96CB flight status page for this flight to view local times or setup timezone preferences in your user account.

Time Position Orientation Groundspeed Altitude Reporting Facility
EDT Latitude Longitude Course Direction KTS MPH feet Rate Location/Type
04:05PM 32.6833 -83.6833 320° Northwest 98 113 1,000  Level Atlanta TRACON
04:06PM 32.7000 -83.7000 320° Northwest 97 112 1,600 660 Climbing Atlanta TRACON
04:07PM 32.7000 -83.7333 270° West 101 116 2,400 660 Climbing Atlanta TRACON
04:08PM 32.7167 -83.7667 301° West 94 108 3,000 600 Climbing Atlanta TRACON
04:09PM 32.7167 -83.8000 270° West 97 112 3,600 600 Climbing Atlanta TRACON
04:10PM 32.7167 -83.8333 270° West 97 112 4,300 660 Climbing Atlanta TRACON
04:11PM 32.7333 -83.8667 301° West 99 114 5,000 660 Climbing Atlanta TRACON
04:12PM 32.7333 -83.9000 270° West 94 108 5,700 600 Climbing Atlanta TRACON
04:13PM 32.7500 -83.9167 320° Northwest 98 113 6,200 600 Climbing Atlanta TRACON
04:14PM 32.7500 -83.9500 270° West 95 109 6,900 600 Climbing Atlanta TRACON
04:15PM 32.7667 -83.9833 301° West 94 108 7,500 600 Climbing Atlanta TRACON
04:16PM 32.7667 -84.0167 270° West 95 109 8,100 180 Climbing Atlanta TRACON
04:17PM 32.7833 -84.0500 301° West 127 146 7,900 -120 Descending Atlanta TRACON
04:18PM 32.8000 -84.0833 301° West 136 157 7,900  Level Atlanta TRACON
04:19PM 32.8000 -84.1333 270° West 139 160 7,900  Level Atlanta TRACON
04:20PM 32.8167 -84.1667 301° West 137 158 7,900  Level Atlanta TRACON
04:21PM 32.8167 -84.2167 270° West 140 161 7,900  Level Atlanta TRACON
04:22PM 32.8167 -84.2667 270° West 135 155 7,900  Level Atlanta TRACON
04:23PM 32.8167 -84.3000 270° West 135 155 7,900  Level Atlanta TRACON
04:24PM 32.8000 -84.3500 248° West 133 153 7,900  Level Atlanta TRACON
04:25PM 32.7833 -84.3833 239° Southwest 132 152 7,900  Level Atlanta TRACON
04:26PM 32.7667 -84.4333 248° West 136 157 7,900  Level Atlanta TRACON
04:27PM 32.7667 -84.4667 270° West 135 155 7,900  Level Atlanta TRACON
04:28PM 32.7667 -84.5167 270° West 140 161 7,900  Level Atlanta TRACON
04:29PM 32.7500 -84.5667 248° West 137 158 7,900  Level Atlanta TRACON
04:30PM 32.7500 -84.6167 270° West 141 162 7,900  Level Atlanta TRACON
04:30PM 32.7500 -84.6500 270° West 140 161 7,900  Level Atlanta TRACON
04:32PM 32.7500 -84.7000 270° West 149 171 7,900  Level Atlanta TRACON
04:33PM 32.7667 -84.7500 292° West 144 166 7,900  Level Atlanta TRACON
04:34PM 32.7833 -84.7833 301° West 149 171 7,900  Level Atlanta TRACON
04:35PM 32.8000 -84.8333 292° West 146 168 7,900  Level Atlanta TRACON
04:35PM 32.8333 -84.8667 320° Northwest 145 167 8,000  Climbing Atlanta TRACON
04:37PM 32.8333 -84.9167 270° West 147 169 7,900 -60 Descending Atlanta TRACON
04:38PM 32.8500 -84.9667 292° West 145 167 7,900  Level Atlanta TRACON
04:39PM 32.8667 -85.0000 301° West 153 176 7,900  Level Atlanta TRACON
04:40PM 32.9000 -85.0500 308° West 150 173 8,000  Climbing Atlanta TRACON
04:41PM 32.9167 -85.0833 301° West 150 173 8,000 -60 Level Atlanta TRACON
04:42PM 32.9500 -85.1167 320° Northwest 155 178 7,900 -60 Descending Atlanta TRACON
04:43PM 32.9667 -85.1500 301° West 147 169 7,900 120 Level Atlanta TRACON
04:44PM 33.0000 -85.2000 308° West 145 167 8,200 240 Climbing Atlanta TRACON
04:45PM 33.0333 -85.2167 337° Northwest 140 161 8,400 360 Climbing Atlanta TRACON
04:45PM 33.0500 -85.2500 301° West 131 151 8,900 240 Climbing Atlanta TRACON
04:47PM 33.0675 -85.3056 291° West 134 154 9,000 60 Climbing Atlanta Center
04:48PM 33.0881 -85.3431 303° West 140 161 9,100 -60 Climbing Atlanta Center
04:49PM 33.1211 -85.3831 315° West 151 174 8,900 -300 Descending Atlanta Center
04:50PM 33.1519 -85.4158 318° Northwest 162 186 8,600 -300 Descending Atlanta Center
04:51PM 33.1914 -85.4489 325° Northwest 162 186 8,400 -240 Descending Atlanta Center
04:52PM 33.2264 -85.4817 322° Northwest 167 192 8,200 -180 Descending Atlanta Center
04:53PM 33.2553 -85.5119 319° Northwest 162 186 8,100 -60 Descending Atlanta Center
04:54PM 33.2861 -85.5572 309° West 157 181 8,100 -60 Level Atlanta Center
04:55PM 33.3128 -85.5975 308° West 151 174 8,000 -60 Descending Atlanta Center
04:56PM 33.3350 -85.6375 304° West 151 174 8,000  Level Atlanta Center
04:57PM 33.3597 -85.6778 306° West 151 174 8,000  Level Atlanta Center
04:58PM 33.3819 -85.7181 303° West 151 174 8,000  Level Atlanta Center
04:59PM 33.4067 -85.7558 308° West 151 174 8,000  Level Atlanta Center
05:00PM 33.4289 -85.7961 303° West 151 174 8,000  Level Atlanta Center
05:01PM 33.4514 -85.8314 307° West 146 168 8,000  Level Atlanta Center
05:02PM 33.4739 -85.8717 304° West 146 168 8,000  Level Atlanta Center
05:03PM 33.4983 -85.9097 308° West 146 168 8,000  Level Atlanta Center
05:04PM 33.5225 -85.9550 303° West 144 166 8,000  Level Atlanta Center
05:05PM 33.5450 -85.9856 311° West 146 168 8,000  Level Atlanta Center
05:06PM 33.5694 -86.0233 308° West 146 168 8,000  Level Atlanta Center
05:07PM 33.5919 -86.0589 307° West 151 174 8,000  Level Atlanta Center
05:08PM 33.6228 -86.0919 318° Northwest 151 174 8,000  Level Atlanta Center
05:09PM 33.6511 -86.1375 307° West 146 168 8,000  Level Atlanta Center
05:10PM 33.6758 -86.1656 317° Northwest 151 174 8,000  Level Atlanta Center
05:11PM 33.7044 -86.1986 316° Northwest 151 174 8,100  Climbing Atlanta Center
05:12PM 33.7347 -86.2469 307° West 147 169 8,100  Level Atlanta Center
05:13PM 33.7614 -86.2828 312° West 147 169 8,100  Level Atlanta Center
05:14PM 33.7919 -86.3183 316° Northwest 147 169 8,100  Level Atlanta Center
05:16PM 33.8464 -86.3883 313° West 147 169 8,100  Level Memphis Center
05:17PM 33.8733 -86.4253 311° West 147 169 8,100  Level Memphis Center
05:18PM 33.9003 -86.4628 311° West 147 169 8,100 -60 Level Memphis Center
05:19PM 33.9283 -86.5047 309° West 146 168 8,000 -60 Descending Atlanta Center
05:21PM 33.9886 -86.5803 314° West 147 169 8,000  Level Memphis Center
05:22PM 34.0181 -86.6183 313° West 148 170 8,000  Level Memphis Center
05:23PM 34.0464 -86.6542 314° West 148 170 8,000  Level Memphis Center
05:24PM 34.0739 -86.6919 311° West 149 171 8,000  Level Memphis Center
05:25PM 34.1008 -86.7289 311° West 149 171 8,000  Level Memphis Center
05:26PM 34.1289 -86.7658 313° West 149 171 8,000 -180 Level Memphis Center
05:27PM 34.1619 -86.8108 312° West 148 170 7,700 -300 Descending Memphis Center
05:28PM 34.1922 -86.8531 311° West 157 181 7,400 -300 Descending Memphis Center
05:29PM 34.2225 -86.8933 312° West 160 184 7,200 -300 Descending Memphis Center
05:30PM 34.2511 -86.9317 312° West 160 184 6,800 -360 Descending Memphis Center
05:31PM 34.2817 -86.9722 312° West 160 184 6,500 -300 Descending Memphis Center
05:32PM 34.3119 -87.0139 311° West 162 186 6,200 -480 Descending Memphis Center
05:33PM 34.3481 -87.0644 311° West 162 186 5,600 -540 Descending Memphis Center
05:34PM 34.3803 -87.1064 313° West 166 191 5,100 -480 Descending Memphis Center
05:35PM 34.4128 -87.1469 314° West 167 192 4,600 -540 Descending Memphis Center
05:36PM 34.4475 -87.1883 315° West 169 194 4,000 -540 Descending Memphis Center
05:38PM 34.4800 -87.2269 316° Northwest 169 194 3,600 -360 Descending Memphis Center
05:39PM 34.5158 -87.2722 314° West 162 186 3,300 -240 Descending Memphis Center
05:40PM 34.5456 -87.3100 314° West 159 183 3,200 -120 Descending Memphis Center
05:41PM 34.5756 -87.3467 315° West 159 183 3,100 -120 Descending Memphis Center
05:42PM 34.6056 -87.3833 315° West 159 183 3,000  Descending Memphis Center
05:43PM 34.6339 -87.4186 314° West 153 176 3,100 -60 Climbing Memphis Center
05:44PM 34.6494 -87.4706 290° West 149 171 2,900 -240 Descending Memphis Center